createdAt,value
2023-02-11T00:00:54.771Z,7.40
2023-02-11T00:03:25.721Z,7.60
2023-02-11T00:06:05.912Z,7.60
2023-02-11T00:08:35.452Z,7.60
2023-02-11T00:11:09.527Z,8.10
2023-02-11T00:13:49.922Z,6.10
2023-02-11T00:16:21.571Z,9.90
2023-02-11T00:18:50.475Z,6.40
2023-02-11T00:21:24.048Z,7.80
2023-02-11T00:23:57.214Z,7.70
2023-02-11T00:26:30.934Z,7.60
2023-02-11T00:28:59.646Z,10.20
2023-02-11T00:31:28.101Z,8.00
2023-02-11T00:34:02.093Z,9.80
2023-02-11T00:36:33.249Z,6.50
2023-02-11T00:39:07.555Z,7.50
2023-02-11T00:41:46.248Z,4.60
2023-02-11T00:44:14.152Z,7.60
2023-02-11T00:46:43.733Z,5.80
2023-02-11T00:49:14.804Z,7.50
2023-02-11T00:51:42.714Z,7.50
2023-02-11T00:54:10.705Z,4.90
2023-02-11T00:56:40.823Z,10.80
2023-02-11T00:59:09.298Z,9.40
2023-02-11T01:01:37.195Z,8.10
2023-02-11T01:04:05.680Z,8.30
2023-02-11T01:06:33.798Z,8.10
2023-02-11T01:09:06.607Z,6.20
2023-02-11T01:11:36.864Z,9.90
2023-02-11T01:14:05.706Z,7.90
2023-02-11T01:16:33.563Z,7.80
2023-02-11T01:19:01.568Z,8.80
2023-02-11T01:21:34.467Z,7.00
2023-02-11T01:24:03.603Z,7.60
2023-02-11T01:26:31.927Z,7.30
2023-02-11T01:29:01.127Z,5.60
2023-02-11T01:31:30.535Z,8.80
2023-02-11T01:33:58.296Z,7.40
2023-02-11T01:36:26.178Z,7.20
2023-02-11T01:38:54.031Z,5.30
2023-02-11T01:41:22.141Z,6.80
2023-02-11T01:43:50.656Z,6.80
2023-02-11T01:46:31.159Z,7.40
2023-02-11T01:49:12.592Z,7.30
2023-02-11T01:52:05.929Z,8.10
2023-02-11T01:54:54.863Z,7.60
2023-02-11T01:57:27.129Z,7.30
2023-02-11T02:00:12.986Z,9.30
2023-02-11T02:03:04.122Z,7.10
2023-02-11T02:05:37.902Z,7.00
2023-02-11T02:08:29.662Z,7.00
2023-02-11T02:11:00.885Z,6.50
2023-02-11T02:13:32.735Z,7.30
2023-02-11T02:16:11.920Z,6.90
2023-02-11T02:18:52.017Z,7.20
2023-02-11T02:21:45.822Z,9.20
2023-02-11T02:24:14.325Z,5.20
2023-02-11T02:26:54.235Z,6.80
2023-02-11T02:29:49.615Z,6.80
2023-02-11T02:32:20.335Z,5.90
2023-02-11T02:35:00.204Z,6.30
2023-02-11T02:37:31.897Z,7.00
2023-02-11T02:40:10.032Z,9.40
2023-02-11T02:42:40.458Z,5.60
2023-02-11T02:45:13.450Z,9.40
2023-02-11T02:47:41.210Z,6.70
2023-02-11T02:50:11.154Z,7.10
2023-02-11T02:52:59.261Z,6.70
2023-02-11T02:55:37.504Z,6.90
2023-02-11T02:58:47.101Z,6.60
2023-02-11T03:01:33.934Z,8.50
2023-02-11T03:04:22.797Z,7.00
2023-02-11T03:07:05.947Z,6.40
2023-02-11T03:10:02.586Z,6.10
2023-02-11T03:12:33.621Z,6.20
2023-02-11T03:15:06.011Z,4.70
2023-02-11T03:17:37.433Z,9.20
2023-02-11T03:20:08.849Z,7.50
2023-02-11T03:22:56.228Z,6.30
2023-02-11T03:25:32.466Z,4.70
2023-02-11T03:28:36.915Z,8.20
2023-02-11T03:31:28.887Z,6.40
2023-02-11T03:34:10.245Z,6.40
2023-02-11T03:36:57.300Z,6.00
2023-02-11T03:39:30.206Z,4.60
2023-02-11T03:42:01.001Z,6.40
2023-02-11T03:44:36.896Z,6.10
2023-02-11T03:47:08.099Z,8.20
2023-02-11T03:49:42.146Z,6.40
2023-02-11T03:52:12.497Z,7.80
2023-02-11T03:54:44.038Z,6.80
2023-02-11T03:57:12.102Z,7.10
2023-02-11T03:59:58.590Z,6.70
2023-02-11T04:02:35.724Z,8.90
2023-02-11T04:05:11.098Z,6.90
2023-02-11T04:07:38.899Z,6.50
2023-02-11T04:10:13.406Z,6.10
2023-02-11T04:12:41.124Z,6.60
2023-02-11T04:15:13.272Z,8.20
2023-02-11T04:17:46.140Z,4.10
2023-02-11T04:20:13.933Z,7.90
2023-02-11T04:22:47.006Z,7.50
2023-02-11T04:25:14.898Z,8.90
2023-02-11T04:27:50.240Z,6.90
2023-02-11T04:30:29.113Z,6.50
2023-02-11T04:32:59.842Z,6.70
2023-02-11T04:35:38.150Z,7.60
2023-02-11T04:38:06.002Z,8.80
2023-02-11T04:40:38.799Z,8.60
2023-02-11T04:43:08.843Z,9.20
2023-02-11T04:45:36.524Z,8.70
2023-02-11T04:48:08.309Z,7.40
2023-02-11T04:50:37.325Z,6.80
2023-02-11T04:53:04.980Z,7.40
2023-02-11T04:55:32.919Z,7.10
2023-02-11T04:58:00.421Z,7.20
2023-02-11T05:00:30.631Z,7.30
2023-02-11T05:03:01.326Z,7.00
2023-02-11T05:05:41.617Z,6.70
2023-02-11T05:08:14.778Z,7.30
2023-02-11T05:10:47.450Z,8.80
2023-02-11T05:13:17.827Z,6.80
2023-02-11T05:15:46.716Z,7.00
2023-02-11T05:18:24.777Z,6.60
2023-02-11T05:20:52.571Z,7.10
2023-02-11T05:23:20.178Z,6.70
2023-02-11T05:25:51.159Z,7.00
2023-02-11T05:28:22.153Z,7.10
2023-02-11T05:30:51.271Z,6.90
2023-02-11T05:33:21.776Z,9.00
2023-02-11T05:35:49.864Z,7.20
2023-02-11T05:38:21.870Z,6.90
2023-02-11T05:40:49.852Z,7.40
2023-02-11T05:43:24.217Z,6.90
2023-02-11T05:45:56.095Z,7.80
2023-02-11T05:48:24.001Z,8.90
2023-02-11T05:50:53.315Z,7.20
2023-02-11T05:53:22.803Z,7.40
2023-02-11T05:55:50.782Z,6.70
2023-02-11T05:58:23.507Z,9.10
2023-02-11T06:00:52.130Z,7.60
2023-02-11T06:03:19.772Z,6.90
2023-02-11T06:05:47.613Z,6.90
2023-02-11T06:08:17.791Z,5.60
2023-02-11T06:10:46.331Z,6.80
2023-02-11T06:13:20.968Z,6.80
2023-02-11T06:16:03.227Z,9.20
2023-02-11T06:18:37.218Z,7.40
2023-02-11T06:21:12.047Z,5.00
2023-02-11T06:23:43.297Z,7.30
2023-02-11T06:26:29.845Z,6.80
2023-02-11T06:29:04.493Z,7.10
2023-02-11T06:31:36.711Z,7.90
2023-02-11T06:34:09.600Z,7.70
2023-02-11T06:36:39.838Z,4.50
2023-02-11T06:39:10.397Z,7.00
2023-02-11T06:41:38.298Z,7.20
2023-02-11T06:44:06.317Z,8.10
2023-02-11T06:46:34.101Z,6.90
2023-02-11T06:49:04.302Z,7.50
2023-02-11T06:51:39.238Z,8.80
2023-02-11T06:54:09.328Z,9.10
2023-02-11T06:56:41.085Z,8.90
2023-02-11T06:59:14.889Z,7.20
2023-02-11T07:01:44.574Z,7.10
2023-02-11T07:04:17.623Z,7.00
2023-02-11T07:06:47.928Z,7.10
2023-02-11T07:09:22.872Z,7.00
2023-02-11T07:11:53.381Z,7.80
2023-02-11T07:14:21.110Z,7.20
2023-02-11T07:16:49.972Z,8.80
2023-02-11T07:19:25.005Z,7.00
2023-02-11T07:21:52.729Z,7.10
2023-02-11T07:24:20.430Z,7.40
2023-02-11T07:26:48.088Z,7.20
2023-02-11T07:29:15.767Z,9.10
2023-02-11T07:31:44.769Z,7.30
2023-02-11T07:34:22.787Z,7.30
2023-02-11T07:36:51.649Z,7.50
2023-02-11T07:39:20.277Z,8.10
2023-02-11T07:41:49.322Z,7.80
2023-02-11T07:44:19.000Z,7.10
2023-02-11T07:46:50.636Z,7.50
2023-02-11T07:49:20.849Z,7.50
2023-02-11T07:51:51.823Z,7.20
2023-02-11T07:54:22.115Z,7.40
2023-02-11T07:56:52.428Z,9.50
2023-02-11T07:59:20.130Z,7.90
2023-02-11T08:01:51.562Z,7.40
2023-02-11T08:04:21.734Z,7.70
2023-02-11T08:06:49.396Z,7.70
2023-02-11T08:09:19.035Z,7.40
2023-02-11T08:11:46.791Z,7.50
2023-02-11T08:14:14.549Z,7.60
2023-02-11T08:16:43.349Z,8.90
2023-02-11T08:19:16.447Z,7.40
2023-02-11T08:21:45.683Z,7.50
2023-02-11T08:24:19.118Z,7.70
2023-02-11T08:26:49.395Z,7.80
2023-02-11T08:29:17.483Z,7.70
2023-02-11T08:31:49.640Z,8.30
2023-02-11T08:34:19.954Z,8.30
2023-02-11T08:36:52.275Z,9.10
2023-02-11T08:39:24.359Z,7.80
2023-02-11T08:41:58.971Z,8.80
2023-02-11T08:44:29.821Z,7.40
2023-02-11T08:47:00.707Z,5.80
2023-02-11T08:49:31.614Z,7.80
2023-02-11T08:52:06.034Z,6.90
2023-02-11T08:54:34.981Z,7.90
2023-02-11T08:57:03.072Z,7.90
2023-02-11T08:59:30.890Z,7.90
2023-02-11T09:01:58.796Z,8.00
2023-02-11T09:04:28.899Z,8.20
2023-02-11T09:06:57.150Z,9.80
2023-02-11T09:09:24.711Z,11.00
2023-02-11T09:11:57.244Z,7.10
2023-02-11T09:14:27.867Z,8.10
2023-02-11T09:16:59.815Z,8.40
2023-02-11T09:19:27.427Z,10.60
2023-02-11T09:21:55.141Z,8.80
2023-02-11T09:24:22.777Z,8.50
2023-02-11T09:26:50.640Z,7.90
2023-02-11T09:29:18.389Z,8.30
2023-02-11T09:31:47.641Z,8.40
2023-02-11T09:34:20.379Z,9.40
2023-02-11T09:36:48.018Z,8.00
2023-02-11T09:39:20.573Z,10.50
2023-02-11T09:42:10.466Z,8.70
2023-02-11T09:44:43.075Z,8.60
2023-02-11T09:47:31.016Z,8.50
2023-02-11T09:50:12.663Z,8.50
2023-02-11T09:52:54.441Z,8.70
2023-02-11T09:55:48.681Z,11.30
2023-02-11T09:58:26.783Z,9.60
2023-02-11T10:01:13.097Z,8.80
2023-02-11T10:04:05.185Z,8.90
2023-02-11T10:06:35.634Z,8.20
2023-02-11T10:09:50.829Z,8.90
2023-02-11T10:12:42.090Z,9.00
2023-02-11T10:15:31.577Z,9.30
2023-02-11T10:18:54.488Z,9.10
2023-02-11T10:22:06.464Z,9.70
2023-02-11T10:24:35.463Z,9.30
2023-02-11T10:27:20.762Z,9.20
2023-02-11T10:29:57.014Z,9.30
2023-02-11T10:32:29.779Z,9.20
2023-02-11T10:35:04.002Z,9.20
2023-02-11T10:37:34.620Z,9.20
2023-02-11T10:40:05.313Z,9.30
2023-02-11T10:42:33.212Z,10.20
2023-02-11T10:45:07.466Z,10.20
2023-02-11T10:47:38.489Z,9.50
2023-02-11T10:50:26.847Z,10.20
2023-02-11T10:53:20.801Z,9.00
2023-02-11T10:55:59.868Z,10.80
2023-02-11T10:58:36.625Z,11.50
2023-02-11T11:01:12.898Z,10.60
2023-02-11T11:03:56.240Z,10.40
2023-02-11T11:06:34.893Z,10.60
2023-02-11T11:09:04.783Z,10.90
2023-02-11T11:11:32.509Z,10.90
2023-02-11T11:14:03.353Z,10.90
2023-02-11T11:16:32.753Z,12.50
2023-02-11T11:19:09.686Z,11.60
2023-02-11T11:21:47.443Z,9.90
2023-02-11T11:24:40.828Z,11.00
2023-02-11T11:27:23.303Z,10.90
2023-02-11T11:29:56.762Z,12.50
2023-02-11T11:32:30.686Z,11.00
2023-02-11T11:35:21.477Z,11.20
2023-02-11T11:37:54.166Z,11.50
2023-02-11T11:40:27.948Z,9.60
2023-02-11T11:43:17.059Z,12.50
2023-02-11T11:46:00.068Z,11.30
2023-02-11T11:48:38.939Z,11.30
2023-02-11T11:51:10.679Z,11.30
2023-02-11T11:53:42.604Z,11.40
2023-02-11T11:56:20.040Z,11.30
2023-02-11T11:58:55.803Z,11.30
2023-02-11T12:01:23.315Z,11.70
2023-02-11T12:04:18.080Z,11.40
2023-02-11T12:06:53.953Z,10.70
2023-02-11T12:09:36.164Z,11.30
2023-02-11T12:12:26.922Z,11.30
2023-02-11T12:15:28.415Z,11.30
2023-02-11T12:18:24.733Z,11.60
2023-02-11T12:21:13.785Z,11.80
2023-02-11T12:23:44.265Z,10.90
2023-02-11T12:26:19.826Z,10.90
2023-02-11T12:29:19.868Z,9.10
2023-02-11T12:32:19.645Z,11.00
2023-02-11T12:35:14.442Z,10.00
2023-02-11T12:38:02.046Z,11.10
2023-02-11T12:40:45.307Z,11.60
2023-02-11T12:43:18.958Z,10.80
2023-02-11T12:46:16.196Z,11.60
2023-02-11T12:49:20.783Z,11.70
2023-02-11T12:52:02.608Z,11.70
2023-02-11T12:54:32.036Z,11.90
2023-02-11T12:57:07.603Z,11.60
2023-02-11T13:00:09.818Z,10.50
2023-02-11T13:02:56.796Z,11.70
2023-02-11T13:05:45.191Z,11.70
2023-02-11T13:08:32.469Z,11.60
2023-02-11T13:11:20.401Z,11.60
2023-02-11T13:13:56.402Z,11.70
2023-02-11T13:16:41.181Z,11.60
2023-02-11T13:19:14.891Z,11.60
2023-02-11T13:22:06.362Z,13.50
2023-02-11T13:24:45.495Z,11.60
2023-02-11T13:27:44.131Z,10.50
2023-02-11T13:30:39.418Z,11.80
2023-02-11T13:33:33.902Z,11.70
2023-02-11T13:36:10.374Z,11.80
2023-02-11T13:38:41.905Z,11.30
2023-02-11T13:41:27.484Z,12.70
2023-02-11T13:44:22.824Z,11.30
2023-02-11T13:47:05.800Z,11.90
2023-02-11T13:49:41.731Z,14.70
2023-02-11T13:52:26.997Z,11.80
2023-02-11T13:55:07.308Z,12.70
2023-02-11T13:57:46.482Z,9.90
2023-02-11T14:03:43.413Z,11.80
2023-02-11T14:06:41.555Z,11.40
2023-02-11T14:09:13.961Z,13.20
2023-02-11T14:11:41.927Z,11.60
2023-02-11T14:14:24.742Z,11.60
2023-02-11T14:17:05.750Z,11.50
2023-02-11T14:19:40.544Z,12.40
2023-02-11T14:22:42.140Z,11.50
2023-02-11T14:25:24.004Z,9.10
2023-02-11T14:28:10.394Z,11.50
2023-02-11T14:30:45.288Z,11.80
2023-02-11T14:33:37.997Z,11.40
2023-02-11T14:36:33.617Z,11.40
2023-02-11T14:39:13.835Z,11.30
2023-02-11T14:41:47.286Z,11.40
2023-02-11T14:44:38.512Z,11.30
2023-02-11T14:47:07.446Z,11.10
2023-02-11T14:49:39.779Z,11.60
2023-02-11T14:52:26.728Z,12.10
2023-02-11T14:55:10.305Z,11.20
2023-02-11T14:57:42.934Z,8.50
2023-02-11T15:00:22.294Z,11.20
2023-02-11T15:02:53.997Z,11.20
2023-02-11T15:05:27.605Z,11.20
2023-02-11T15:08:15.661Z,11.20
2023-02-11T15:10:45.003Z,11.20
2023-02-11T15:13:21.571Z,11.30
2023-02-11T15:15:52.353Z,11.00
2023-02-11T15:18:24.108Z,11.00
2023-02-11T15:20:54.685Z,11.00
2023-02-11T15:23:25.682Z,10.90
2023-02-11T15:25:56.225Z,10.80
2023-02-11T15:28:26.869Z,11.40
2023-02-11T15:30:58.758Z,11.50
2023-02-11T15:33:29.999Z,10.80
2023-02-11T15:36:02.050Z,11.50
2023-02-11T15:38:30.615Z,10.70
2023-02-11T15:41:03.903Z,10.80
2023-02-11T15:43:50.848Z,9.70
2023-02-11T15:46:22.050Z,10.90
2023-02-11T15:48:57.859Z,10.70
2023-02-11T15:51:47.517Z,10.80
2023-02-11T15:54:24.904Z,10.70
2023-02-11T15:57:00.540Z,10.70
2023-02-11T15:59:33.241Z,10.60
2023-02-11T16:02:16.371Z,10.70
2023-02-11T16:05:08.969Z,11.10
2023-02-11T16:07:44.174Z,12.20
2023-02-11T16:10:35.573Z,10.40
2023-02-11T16:13:11.763Z,10.60
2023-02-11T16:15:54.357Z,11.20
2023-02-11T16:18:40.287Z,10.20
2023-02-11T16:21:16.889Z,10.40
2023-02-11T16:23:51.435Z,10.40
2023-02-11T16:26:30.873Z,10.10
2023-02-11T16:29:18.507Z,8.80
2023-02-11T16:31:48.191Z,10.30
2023-02-11T16:34:25.005Z,10.10
2023-02-11T16:36:53.156Z,10.40
2023-02-11T16:39:24.547Z,10.20
2023-02-11T16:41:52.798Z,13.30
2023-02-11T16:44:22.790Z,10.60
2023-02-11T16:46:51.830Z,10.10
2023-02-11T16:49:41.485Z,9.90
2023-02-11T16:52:14.485Z,10.20
2023-02-11T16:54:42.306Z,9.80
2023-02-11T16:57:23.624Z,10.00
2023-02-11T16:59:52.182Z,7.60
2023-02-11T17:02:27.109Z,10.30
2023-02-11T17:04:56.244Z,9.60
2023-02-11T17:07:23.845Z,9.60
2023-02-11T17:09:52.250Z,9.80
2023-02-11T17:12:20.478Z,9.50
2023-02-11T17:14:48.044Z,9.70
2023-02-11T17:17:16.272Z,9.60
2023-02-11T17:19:43.890Z,9.60
2023-02-11T17:22:14.383Z,10.50
2023-02-11T17:24:44.201Z,9.80
2023-02-11T17:27:15.221Z,9.80
2023-02-11T17:29:42.899Z,10.00
2023-02-11T17:32:13.691Z,9.80
2023-02-11T17:34:42.999Z,9.50
2023-02-11T17:37:11.579Z,9.60
2023-02-11T17:39:40.239Z,9.60
2023-02-11T17:42:08.841Z,9.50
2023-02-11T17:44:37.338Z,11.80
2023-02-11T17:47:05.130Z,9.80
2023-02-11T17:49:32.618Z,9.20
2023-02-11T17:52:02.316Z,10.00
2023-02-11T17:54:29.811Z,9.50
2023-02-11T17:56:58.774Z,9.60
2023-02-11T17:59:26.542Z,9.50
2023-02-11T18:01:58.083Z,9.90
2023-02-11T18:04:25.817Z,9.50
2023-02-11T18:06:53.712Z,9.80
2023-02-11T18:09:22.912Z,7.70
2023-02-11T18:11:52.515Z,9.70
2023-02-11T18:14:21.787Z,9.50
2023-02-11T18:16:52.841Z,9.70
2023-02-11T18:19:20.956Z,9.40
2023-02-11T18:21:53.706Z,10.20
2023-02-11T18:24:21.900Z,9.70
2023-02-11T18:26:49.626Z,9.60
2023-02-11T18:29:17.188Z,9.60
2023-02-11T18:31:44.880Z,9.60
2023-02-11T18:34:18.253Z,9.60
2023-02-11T18:36:45.994Z,10.20
2023-02-11T18:39:16.035Z,9.50
2023-02-11T18:41:43.674Z,9.70
2023-02-11T18:44:14.350Z,9.20
2023-02-11T18:46:44.883Z,8.50
2023-02-11T18:49:13.268Z,11.00
2023-02-11T18:51:40.850Z,9.60
2023-02-11T18:54:08.514Z,9.40
2023-02-11T18:56:38.853Z,9.90
2023-02-11T18:59:06.603Z,9.20
2023-02-11T19:01:34.539Z,9.30
2023-02-11T19:04:04.780Z,9.50
2023-02-11T19:06:35.558Z,9.20
2023-02-11T19:09:07.131Z,9.40
2023-02-11T19:11:54.371Z,9.20
2023-02-11T19:14:37.120Z,9.70
2023-02-11T19:17:07.437Z,9.30
2023-02-11T19:19:36.572Z,9.20
2023-02-11T19:22:09.190Z,9.20
2023-02-11T19:24:38.707Z,9.60
2023-02-11T19:27:06.257Z,7.10
2023-02-11T19:29:35.378Z,9.20
2023-02-11T19:32:04.360Z,9.70
2023-02-11T19:34:32.642Z,8.40
2023-02-11T19:37:01.697Z,9.10
2023-02-11T19:39:29.424Z,9.20
2023-02-11T19:41:56.896Z,9.20
2023-02-11T19:44:24.374Z,9.70
2023-02-11T19:46:53.400Z,9.20
2023-02-11T19:49:26.031Z,9.30
2023-02-11T19:51:57.492Z,9.10
2023-02-11T19:54:31.234Z,9.10
2023-02-11T19:56:59.208Z,9.10
2023-02-11T19:59:26.959Z,9.10
2023-02-11T20:01:54.721Z,9.10
2023-02-11T20:04:24.282Z,9.10
2023-02-11T20:06:52.115Z,9.10
2023-02-11T20:09:19.680Z,9.50
2023-02-11T20:11:47.453Z,9.40
2023-02-11T20:14:21.200Z,9.80
2023-02-11T20:16:50.071Z,9.10
2023-02-11T20:19:21.600Z,9.30
2023-02-11T20:21:53.017Z,9.00
2023-02-11T20:24:23.602Z,9.60
2023-02-11T20:26:58.193Z,9.30
2023-02-11T20:29:26.025Z,9.30
2023-02-11T20:31:54.425Z,9.50
2023-02-11T20:34:22.295Z,9.00
2023-02-11T20:36:54.390Z,10.00
2023-02-11T20:39:23.837Z,9.10
2023-02-11T20:41:52.449Z,9.10
2023-02-11T20:44:22.390Z,9.10
2023-02-11T20:46:54.569Z,9.00
2023-02-11T20:49:24.115Z,8.90
2023-02-11T20:51:53.882Z,9.70
2023-02-11T20:54:24.380Z,9.10
2023-02-11T20:56:54.037Z,9.30
2023-02-11T20:59:22.021Z,9.10
2023-02-11T21:01:55.774Z,8.40
2023-02-11T21:04:27.434Z,9.30
2023-02-11T21:06:59.301Z,10.60
2023-02-11T21:09:30.701Z,9.20
2023-02-11T21:11:58.460Z,9.20
2023-02-11T21:14:26.774Z,9.00
2023-02-11T21:16:58.336Z,9.20
2023-02-11T21:19:28.174Z,9.10
2023-02-11T21:21:57.329Z,9.00
2023-02-11T21:24:24.993Z,9.30
2023-02-11T21:26:52.644Z,9.00
2023-02-11T21:29:23.398Z,9.00
2023-02-11T21:31:51.530Z,9.00
2023-02-11T21:34:20.375Z,9.20
2023-02-11T21:36:48.104Z,9.40
2023-02-11T21:39:20.619Z,10.70
2023-02-11T21:41:48.516Z,8.90
2023-02-11T21:44:16.100Z,9.10
2023-02-11T21:46:47.991Z,9.40
2023-02-11T21:49:20.523Z,9.50
2023-02-11T21:51:50.336Z,9.10
2023-02-11T21:54:18.864Z,9.00
2023-02-11T21:56:46.578Z,8.30
2023-02-11T22:02:48.271Z,9.30
2023-02-11T22:09:42.518Z,9.00
2023-02-11T22:12:11.494Z,9.00
2023-02-11T22:14:39.481Z,11.10
2023-02-11T22:17:09.892Z,8.90
2023-02-11T22:19:37.933Z,9.40
2023-02-11T22:22:05.845Z,7.80
2023-02-11T22:24:33.602Z,9.10
2023-02-11T22:27:04.111Z,10.00
2023-02-11T22:29:31.871Z,8.90
2023-02-11T22:31:59.704Z,8.90
2023-02-11T22:34:28.622Z,7.10
2023-02-11T22:36:56.272Z,10.50
2023-02-11T22:39:24.118Z,8.70
2023-02-11T22:42:00.927Z,10.00
2023-02-11T22:44:31.220Z,8.90
2023-02-11T22:47:00.122Z,9.80
2023-02-11T22:49:32.556Z,9.20
2023-02-11T22:52:06.630Z,9.30
2023-02-11T22:54:34.450Z,8.90
2023-02-11T22:57:04.393Z,9.10
2023-02-11T22:59:33.405Z,8.90
2023-02-11T23:02:13.002Z,9.00
2023-02-11T23:04:40.790Z,9.20
2023-02-11T23:07:12.789Z,8.50
2023-02-11T23:09:40.552Z,9.20
2023-02-11T23:12:13.782Z,9.20
2023-02-11T23:14:42.710Z,9.10
2023-02-11T23:17:10.450Z,9.30
2023-02-11T23:19:43.030Z,7.50
2023-02-11T23:22:11.926Z,7.60
2023-02-11T23:24:39.527Z,9.30
2023-02-11T23:27:09.786Z,9.20
2023-02-11T23:29:45.883Z,9.90
2023-02-11T23:36:49.751Z,9.10
2023-02-11T23:40:43.619Z,8.80
2023-02-11T23:43:11.498Z,8.80
2023-02-11T23:45:43.719Z,9.40
2023-02-11T23:48:15.986Z,9.10
2023-02-11T23:50:44.800Z,9.20
2023-02-11T23:53:15.629Z,8.30
2023-02-11T23:55:50.948Z,9.00
2023-02-11T23:58:23.528Z,9.40
